createdAt,value
2019-01-05T00:06:00.234Z,22.62
2019-01-05T00:09:00.265Z,23.32
2019-01-05T00:12:00.197Z,22.17
2019-01-05T00:14:59.693Z,24.05
2019-01-05T00:17:59.698Z,25.40
2019-01-05T00:24:05.126Z,27.90
2019-01-05T00:27:04.653Z,27.32
2019-01-05T00:30:04.444Z,25.57
2019-01-05T00:33:03.556Z,27.67
2019-01-05T00:36:03.620Z,24.20
2019-01-05T00:39:05.439Z,25.92
2019-01-05T00:42:08.043Z,26.07
2019-01-05T00:45:08.003Z,27.60
2019-01-05T00:48:07.899Z,27.10
2019-01-05T00:51:10.189Z,26.30
2019-01-05T00:54:12.991Z,28.50
2019-01-05T01:00:20.888Z,29.77
2019-01-05T01:03:23.536Z,31.55
2019-01-05T01:06:23.469Z,32.67
2019-01-05T01:09:19.803Z,34.00
2019-01-05T01:12:19.814Z,35.15
2019-01-05T01:15:20.055Z,35.77
2019-01-05T01:18:01.253Z,34.80
2019-01-05T01:21:07.275Z,37.00
2019-01-05T01:24:07.464Z,37.88
2019-01-05T01:26:59.571Z,38.50
2019-01-05T01:29:59.720Z,42.10
2019-01-05T01:33:05.851Z,38.88
2019-01-05T01:35:58.295Z,41.60
2019-01-05T01:39:04.571Z,41.85
2019-01-05T01:42:04.159Z,40.80
2019-01-05T01:45:03.822Z,40.90
2019-01-05T01:48:03.293Z,41.33
2019-01-05T01:51:03.531Z,40.52
2019-01-05T01:54:03.668Z,39.48
2019-01-05T01:56:54.344Z,35.70
2019-01-05T01:59:54.505Z,37.95
2019-01-05T02:02:54.206Z,33.53
2019-01-05T02:05:54.392Z,34.13
2019-01-05T02:08:53.252Z,32.20
2019-01-05T02:11:53.060Z,31.75
2019-01-05T02:14:55.711Z,29.37
2019-01-05T02:17:56.239Z,30.30
2019-01-05T02:20:56.371Z,26.25
2019-01-05T02:24:02.529Z,25.35
2019-01-05T02:27:02.208Z,23.18
2019-01-05T02:30:01.897Z,22.50
2019-01-05T02:33:02.132Z,23.60
2019-01-05T02:36:02.401Z,21.77
2019-01-05T02:39:02.066Z,23.20
2019-01-05T02:42:01.457Z,22.17
2019-01-05T02:45:01.777Z,21.73
2019-01-05T02:48:02.025Z,21.80
2019-01-05T02:51:02.146Z,20.65
2019-01-05T02:53:57.931Z,20.77
2019-01-05T02:56:58.227Z,20.93
2019-01-05T02:59:58.517Z,22.05
2019-01-05T03:02:58.896Z,22.65
2019-01-05T03:05:58.735Z,25.15
2019-01-05T03:08:58.126Z,25.35
2019-01-05T03:11:57.723Z,27.20
2019-01-05T03:15:00.339Z,27.55
2019-01-05T03:17:59.930Z,28.83
2019-01-05T03:20:59.479Z,29.10
2019-01-05T03:23:59.422Z,30.65
2019-01-05T03:26:59.749Z,32.00
2019-01-05T03:29:59.224Z,32.58
2019-01-05T03:32:58.635Z,29.82
2019-01-05T03:36:00.815Z,32.48
2019-01-05T03:39:00.464Z,29.53
2019-01-05T03:42:00.064Z,32.38
2019-01-05T03:44:56.808Z,35.25
2019-01-05T03:48:03.221Z,33.38
2019-01-05T03:51:02.806Z,30.23
2019-01-05T03:54:03.161Z,28.85
2019-01-05T03:57:03.386Z,29.52
2019-01-05T04:00:29.684Z,30.40
2019-01-05T04:03:55.932Z,29.42
2019-01-05T04:06:55.904Z,29.70
2019-01-05T04:09:48.247Z,30.23
2019-01-05T04:12:47.908Z,28.35
2019-01-05T04:15:47.986Z,31.07
2019-01-05T04:18:47.699Z,28.30
2019-01-05T04:21:47.485Z,29.35
2019-01-05T04:24:36.861Z,30.20
2019-01-05T04:27:36.761Z,27.48
2019-01-05T04:30:36.442Z,30.10
2019-01-05T04:33:37.004Z,25.50
2019-01-05T04:36:37.707Z,27.17
2019-01-05T04:39:37.065Z,27.75
2019-01-05T04:42:37.200Z,29.40
2019-01-05T04:45:37.861Z,29.32
2019-01-05T04:48:37.819Z,27.90
2019-01-05T04:51:37.210Z,31.70
2019-01-05T04:54:39.392Z,30.82
2019-01-05T04:57:39.112Z,29.07
2019-01-05T05:00:39.197Z,28.98
2019-01-05T05:03:37.692Z,27.62
2019-01-05T05:06:37.184Z,29.40
2019-01-05T05:09:37.774Z,26.85
2019-01-05T05:12:37.455Z,28.55
2019-01-05T05:15:37.421Z,21.83
2019-01-05T05:18:37.575Z,27.35
2019-01-05T05:21:37.211Z,25.55
2019-01-05T05:24:37.241Z,25.90
2019-01-05T05:27:37.188Z,24.65
2019-01-05T05:30:37.604Z,25.55
2019-01-05T05:33:42.986Z,22.30
2019-01-05T05:36:42.646Z,22.15
2019-01-05T05:39:37.828Z,23.40
2019-01-05T05:42:37.892Z,20.92
2019-01-05T05:45:30.701Z,20.53
2019-01-05T05:48:31.029Z,22.33
2019-01-05T05:51:37.447Z,22.25
2019-01-05T05:54:38.160Z,21.73
2019-01-05T05:57:37.430Z,20.82
2019-01-05T06:00:39.324Z,22.00
2019-01-05T06:03:34.733Z,20.10
2019-01-05T06:06:34.937Z,21.27
2019-01-05T06:09:35.201Z,22.62
2019-01-05T06:12:34.620Z,22.20
2019-01-05T06:15:34.273Z,23.15
2019-01-05T06:18:26.615Z,20.70
2019-01-05T06:21:26.548Z,22.50
2019-01-05T06:24:26.059Z,22.82
2019-01-05T06:27:20.235Z,18.80
2019-01-05T06:30:14.752Z,19.70
2019-01-05T06:33:17.332Z,19.52
2019-01-05T06:36:17.384Z,17.62
2019-01-05T06:39:14.591Z,17.03
2019-01-05T06:42:14.372Z,19.98
2019-01-05T06:45:13.965Z,19.40
2019-01-05T06:48:19.661Z,19.40
2019-01-05T06:51:19.704Z,17.23
2019-01-05T06:54:19.976Z,18.60
2019-01-05T06:57:18.465Z,19.90
2019-01-05T07:00:11.353Z,17.50
2019-01-05T07:03:11.347Z,15.90
2019-01-05T07:06:11.196Z,18.85
2019-01-05T07:09:10.624Z,17.10
2019-01-05T07:12:11.265Z,18.37
2019-01-05T07:15:08.781Z,18.25
2019-01-05T07:18:08.841Z,20.00
2019-01-05T07:21:08.292Z,18.25
2019-01-05T07:24:02.457Z,18.67
2019-01-05T07:27:08.919Z,20.92
2019-01-05T07:30:09.363Z,17.97
2019-01-05T07:33:09.750Z,17.10
2019-01-05T07:36:15.436Z,19.35
2019-01-05T07:39:15.481Z,15.30
2019-01-05T07:42:15.868Z,17.17
2019-01-05T07:45:14.164Z,17.00
2019-01-05T07:48:14.214Z,15.35
2019-01-05T07:51:16.826Z,15.88
2019-01-05T07:54:17.021Z,14.20
2019-01-05T07:57:22.652Z,11.65
2019-01-05T08:00:18.772Z,12.57
2019-01-05T08:03:18.843Z,11.78
2019-01-05T08:06:22.622Z,11.03
2019-01-05T08:09:22.528Z,10.95
2019-01-05T08:12:22.848Z,11.43
2019-01-05T08:15:23.220Z,12.37
2019-01-05T08:18:23.412Z,9.30
2019-01-05T08:21:23.289Z,7.60
2019-01-05T08:24:25.607Z,9.13
2019-01-05T08:27:14.240Z,7.85
2019-01-05T08:30:14.834Z,7.42
2019-01-05T08:33:18.548Z,6.90
2019-01-05T08:36:20.639Z,6.67
2019-01-05T08:39:21.075Z,6.85
2019-01-05T08:42:21.360Z,6.45
2019-01-05T08:45:21.234Z,6.30
2019-01-05T08:48:38.435Z,6.20
2019-01-05T08:52:04.689Z,5.78
2019-01-05T08:55:30.928Z,5.78
2019-01-05T08:58:57.185Z,5.90
2019-01-05T09:02:15.215Z,5.97
2019-01-05T09:05:18.030Z,5.70
2019-01-05T09:08:17.905Z,5.72
2019-01-05T09:11:14.298Z,5.80
2019-01-05T09:14:14.116Z,7.42
2019-01-05T09:17:18.171Z,6.37
2019-01-05T09:20:18.733Z,6.15
2019-01-05T09:23:19.724Z,6.10
2019-01-05T09:26:20.143Z,5.65
2019-01-05T09:29:19.279Z,5.87
2019-01-05T09:32:19.230Z,6.40
2019-01-05T09:35:18.804Z,6.40
2019-01-05T09:38:18.446Z,5.67
2019-01-05T09:41:18.612Z,4.70
2019-01-05T09:44:17.969Z,4.70
2019-01-05T09:47:23.910Z,4.87
2019-01-05T09:50:30.402Z,4.00
2019-01-05T09:53:33.708Z,4.37
2019-01-05T09:56:27.996Z,3.83
2019-01-05T09:59:27.741Z,3.65
2019-01-05T10:02:27.172Z,3.98
2019-01-05T10:05:26.712Z,3.70
2019-01-05T10:08:27.406Z,3.90
2019-01-05T10:11:27.065Z,4.42
2019-01-05T10:14:16.841Z,4.10
2019-01-05T10:17:17.013Z,3.42
2019-01-05T10:20:13.739Z,3.87
2019-01-05T10:23:13.520Z,3.52
2019-01-05T10:26:13.796Z,3.75
2019-01-05T10:29:13.328Z,3.20
2019-01-05T10:32:13.379Z,3.30
2019-01-05T10:35:12.896Z,3.10
2019-01-05T10:38:12.303Z,3.30
2019-01-05T10:41:09.905Z,3.30
2019-01-05T10:44:10.061Z,3.30
2019-01-05T10:47:09.694Z,3.00
2019-01-05T10:50:13.537Z,3.63
2019-01-05T10:53:13.386Z,3.80
2019-01-05T10:56:19.216Z,3.50
2019-01-05T10:59:18.626Z,3.15
2019-01-05T11:02:18.435Z,3.50
2019-01-05T11:05:20.892Z,3.27
2019-01-05T11:08:20.348Z,3.35
2019-01-05T11:11:20.006Z,3.40
2019-01-05T11:14:19.489Z,3.42
2019-01-05T11:17:19.762Z,3.40
2019-01-05T11:20:19.479Z,2.80
2019-01-05T11:26:21.352Z,3.10
2019-01-05T11:29:46.830Z,3.10
2019-01-05T11:33:13.326Z,3.35
2019-01-05T11:36:32.333Z,2.85
2019-01-05T11:50:30.387Z,3.15
2019-01-05T11:53:56.681Z,2.90
2019-01-05T11:57:23.226Z,3.05
2019-01-05T12:04:13.153Z,2.87
2019-01-05T12:07:20.539Z,2.83
2019-01-05T12:10:26.894Z,2.85
2019-01-05T12:13:26.456Z,2.65
2019-01-05T12:16:29.213Z,3.02
2019-01-05T12:19:28.913Z,2.87
2019-01-05T12:22:28.446Z,2.80
2019-01-05T12:28:30.385Z,2.60
2019-01-05T12:31:25.480Z,2.60
2019-01-05T12:34:25.772Z,2.95
2019-01-05T12:44:43.926Z,2.80
2019-01-05T12:54:49.690Z,2.80
2019-01-05T12:58:15.997Z,2.65
2019-01-05T13:01:45.291Z,2.50
2019-01-05T13:05:11.568Z,2.27
2019-01-05T13:08:11.393Z,2.80
2019-01-05T13:11:11.150Z,2.40
2019-01-05T13:14:13.811Z,2.85
2019-01-05T13:17:13.258Z,3.02
2019-01-05T13:20:10.404Z,3.03
2019-01-05T13:23:16.836Z,3.05
2019-01-05T13:26:16.526Z,3.30
2019-01-05T13:32:18.502Z,2.77
2019-01-05T13:35:16.268Z,2.83
2019-01-05T13:38:16.376Z,2.80
2019-01-05T13:41:12.733Z,2.77
2019-01-05T13:44:12.455Z,2.80
2019-01-05T13:47:12.186Z,2.60
2019-01-05T13:50:12.484Z,3.00
2019-01-05T13:53:12.039Z,2.70
2019-01-05T13:56:11.425Z,3.15
2019-01-05T13:59:14.462Z,3.00
2019-01-05T14:02:14.237Z,3.30
2019-01-05T14:05:15.125Z,3.03
2019-01-05T14:11:17.436Z,3.35
2019-01-05T14:14:17.391Z,4.08
2019-01-05T14:20:22.995Z,3.52
2019-01-05T14:23:23.212Z,3.40
2019-01-05T14:26:47.540Z,4.87
2019-01-05T14:29:37.464Z,4.33
2019-01-05T14:32:40.260Z,4.00
2019-01-05T14:35:39.775Z,3.70
2019-01-05T14:38:43.517Z,3.98
2019-01-05T14:41:43.372Z,4.00
2019-01-05T14:44:42.865Z,3.90
2019-01-05T14:47:39.708Z,4.70
2019-01-05T14:50:39.243Z,4.80
2019-01-05T14:53:39.127Z,4.97
2019-01-05T14:56:39.736Z,5.27
2019-01-05T14:59:39.958Z,5.30
2019-01-05T15:02:40.123Z,5.08
2019-01-05T15:05:39.507Z,5.10
2019-01-05T15:08:40.086Z,4.90
2019-01-05T15:11:39.637Z,4.70
2019-01-05T15:14:39.324Z,5.10
2019-01-05T15:17:40.393Z,5.30
2019-01-05T15:20:40.356Z,5.10
2019-01-05T15:23:31.532Z,4.58
2019-01-05T15:26:34.228Z,4.83
2019-01-05T15:29:31.012Z,4.90
2019-01-05T15:32:31.250Z,4.50
2019-01-05T15:35:30.856Z,4.58
2019-01-05T15:38:30.497Z,4.43
2019-01-05T15:41:25.000Z,4.60
2019-01-05T15:44:25.056Z,4.33
2019-01-05T15:47:24.665Z,4.10
2019-01-05T15:50:30.579Z,4.35
2019-01-05T15:53:30.024Z,4.13
2019-01-05T15:56:32.712Z,3.92
2019-01-05T15:59:32.123Z,3.73
2019-01-05T16:02:31.164Z,3.80
2019-01-05T16:05:31.043Z,4.10
2019-01-05T16:08:30.452Z,3.75
2019-01-05T16:11:30.995Z,4.20
2019-01-05T16:14:31.309Z,4.00
2019-01-05T16:17:31.000Z,3.62
2019-01-05T16:20:26.819Z,3.62
2019-01-05T16:23:23.924Z,4.03
2019-01-05T16:26:23.800Z,3.50
2019-01-05T16:29:23.582Z,3.60
2019-01-05T16:32:24.210Z,3.20
2019-01-05T16:35:21.585Z,3.22
2019-01-05T16:38:28.627Z,3.37
2019-01-05T16:41:35.932Z,3.37
2019-01-05T16:44:32.259Z,3.80
2019-01-05T16:50:59.240Z,3.70
2019-01-05T16:54:06.293Z,3.47
2019-01-05T16:57:13.344Z,4.78
2019-01-05T17:00:20.612Z,3.95
2019-01-05T17:03:27.681Z,3.98
2019-01-05T17:06:34.769Z,4.08
2019-01-05T17:09:42.088Z,3.50
2019-01-05T17:12:49.122Z,3.90
2019-01-05T17:15:56.194Z,3.42
2019-01-05T17:19:03.525Z,3.80
2019-01-05T17:22:10.615Z,3.70
2019-01-05T17:25:17.707Z,4.00
2019-01-05T17:28:25.031Z,4.55
2019-01-05T17:31:32.248Z,3.70
2019-01-05T17:34:39.521Z,4.37
2019-01-05T17:37:46.835Z,3.90
2019-01-05T17:40:53.865Z,4.10
2019-01-05T17:44:00.912Z,3.40
2019-01-05T17:46:57.728Z,4.05
2019-01-05T17:50:04.813Z,3.72
2019-01-05T17:53:11.944Z,3.90
2019-01-05T17:56:19.347Z,4.70
2019-01-05T17:59:26.664Z,3.92
2019-01-05T18:02:33.957Z,4.00
2019-01-05T18:05:41.037Z,4.83
2019-01-05T18:08:38.536Z,5.40
2019-01-05T18:11:38.686Z,4.33
2019-01-05T18:14:44.540Z,4.20
2019-01-05T18:17:44.465Z,4.35
2019-01-05T18:20:46.702Z,4.00
2019-01-05T18:23:46.283Z,4.20
2019-01-05T18:26:46.105Z,3.95
2019-01-05T18:29:45.572Z,4.60
2019-01-05T18:32:45.111Z,4.22
2019-01-05T18:35:44.883Z,3.87
2019-01-05T18:38:45.587Z,3.97
2019-01-05T18:41:45.614Z,4.33
2019-01-05T18:44:40.089Z,4.70
2019-01-05T18:47:40.676Z,4.25
2019-01-05T18:50:40.153Z,4.00
2019-01-05T18:53:40.294Z,4.40
2019-01-05T18:56:40.410Z,4.03
2019-01-05T18:59:40.059Z,4.10
2019-01-05T19:02:39.731Z,4.55
2019-01-05T19:05:39.925Z,4.10
2019-01-05T19:11:41.109Z,4.53
2019-01-05T19:14:40.726Z,4.20
2019-01-05T19:17:40.260Z,4.35
2019-01-05T19:20:46.089Z,4.30
2019-01-05T19:23:39.493Z,4.40
2019-01-05T19:26:39.456Z,4.42
2019-01-05T19:29:39.732Z,4.67
2019-01-05T19:32:39.404Z,4.58
2019-01-05T19:35:39.224Z,4.50
2019-01-05T19:38:39.370Z,6.37
2019-01-05T19:41:39.094Z,5.00
2019-01-05T19:44:39.375Z,4.80
2019-01-05T19:47:36.522Z,4.95
2019-01-05T19:50:36.825Z,4.25
2019-01-05T19:53:40.152Z,4.53
2019-01-05T19:56:40.716Z,5.03
2019-01-05T19:59:40.205Z,4.60
2019-01-05T20:02:39.741Z,4.95
2019-01-05T20:05:39.825Z,4.85
2019-01-05T20:08:43.067Z,4.80
2019-01-05T20:11:42.081Z,4.63
2019-01-05T20:14:45.385Z,4.97
2019-01-05T20:17:44.884Z,5.08
2019-01-05T20:20:44.416Z,5.12
2019-01-05T20:23:44.199Z,4.90
2019-01-05T20:26:47.008Z,5.28
2019-01-05T20:29:50.083Z,5.08
2019-01-05T20:32:49.913Z,5.05
2019-01-05T20:35:49.631Z,4.90
2019-01-05T20:38:49.731Z,5.30
2019-01-05T20:41:50.301Z,4.92
2019-01-05T20:44:47.532Z,4.92
2019-01-05T20:47:47.236Z,4.90
2019-01-05T20:50:52.724Z,4.45
2019-01-05T20:53:52.390Z,4.85
2019-01-05T20:56:58.556Z,4.70
2019-01-05T20:59:57.997Z,4.92
2019-01-05T21:02:57.902Z,4.70
2019-01-05T21:05:58.113Z,4.97
2019-01-05T21:08:57.832Z,5.33
2019-01-05T21:12:06.148Z,4.95
2019-01-05T21:15:05.839Z,5.20
2019-01-05T21:18:12.152Z,5.33
2019-01-05T21:21:11.944Z,5.75
2019-01-05T21:24:11.907Z,5.60
2019-01-05T21:27:06.037Z,6.03
2019-01-05T21:33:15.163Z,6.45
2019-01-05T21:36:20.888Z,6.72
2019-01-05T21:39:20.285Z,8.20
2019-01-05T21:42:20.079Z,7.15
2019-01-05T21:45:19.572Z,7.50
2019-01-05T21:48:19.310Z,7.25
2019-01-05T21:54:17.475Z,8.00
2019-01-05T21:57:18.557Z,7.60
2019-01-05T22:00:06.354Z,7.70
2019-01-05T22:03:13.471Z,14.10
2019-01-05T22:06:20.793Z,7.37
2019-01-05T22:09:20.914Z,8.38
2019-01-05T22:12:20.571Z,8.50
2019-01-05T22:15:20.000Z,8.00
2019-01-05T22:18:19.777Z,7.90
2019-01-05T22:21:25.444Z,7.92
2019-01-05T22:24:24.968Z,7.90
2019-01-05T22:27:25.498Z,8.05
2019-01-05T22:30:21.155Z,7.90
2019-01-05T22:33:21.620Z,8.33
2019-01-05T22:36:21.440Z,8.23
2019-01-05T22:39:27.620Z,8.40
2019-01-05T22:42:27.357Z,8.60
2019-01-05T22:45:24.141Z,8.80
2019-01-05T22:48:25.525Z,8.28
2019-01-05T22:51:25.260Z,8.15
2019-01-05T22:54:19.101Z,7.75
2019-01-05T22:57:19.249Z,8.18
2019-01-05T23:00:19.089Z,7.45
2019-01-05T23:03:19.125Z,7.78
2019-01-05T23:06:19.161Z,7.42
2019-01-05T23:09:17.955Z,7.30
2019-01-05T23:12:14.561Z,7.05
2019-01-05T23:15:04.788Z,6.92
2019-01-05T23:18:00.471Z,7.08
2019-01-05T23:21:00.312Z,7.35
2019-01-05T23:24:00.884Z,7.50
2019-01-05T23:26:48.728Z,7.03
2019-01-05T23:29:55.918Z,7.65
2019-01-05T23:33:03.001Z,6.95
2019-01-05T23:36:10.063Z,7.00
2019-01-05T23:39:17.130Z,7.65
2019-01-05T23:42:24.402Z,7.42
2019-01-05T23:45:31.478Z,7.65
2019-01-05T23:48:38.550Z,7.22
2019-01-05T23:51:40.701Z,7.60
2019-01-05T23:54:47.776Z,7.55
2019-01-05T23:57:54.893Z,7.50
